Kent, Illinois
Current Conditions -  °F | °C
As of 11:15 AM on Saturday 20 Dec 2014 (Local Time) from KFEP Reporting Station
Haze Haze  
Wind Chill: 23°   Ceiling: 4500
Heat Index: 29°   Visibility: 5mi
Dew Point: 25°   Wind: 6mph
Humidity: 85%   Direction: 150°SSE
Pressure: 30.27"   Gusts: NA
Location:  42.31°N, 89.9°W
Report Text: KFEP 201715Z AUTO 15005KT 5SM BR SCT036 OVC045 M02/M04 A3027 RMK AO2 T10181040
Loading
Personal Weather Stations






























Interactive Weather Map New forecast layout! Learn more

10-Day Weather Forecast

Advertisements
Track Severe Weather on mobile